Time;durP1;ratioP1;P1;durP2;ratioP2;P2;SDS_P1;SDS_P2;PMS_P1;PMS_P2;Temp;Humidity;BMP_temperature;BMP_pressure;BME280_temperature;BME280_humidity;BME280_pressure;Samples;Min_cycle;Max_cycle;Signal;HPM_P1;HPM_P2
2021/01/11 00:00:21;;;;;;;7.45;3.83;;;19.90;42.00;;;;;;6273556;28;20539;-56
2021/01/11 00:03:22;;;;;;;7.03;3.70;;;19.90;42.00;;;;;;6281955;28;20029;-55
2021/01/11 00:06:23;;;;;;;10.00;4.20;;;19.90;42.10;;;;;;6268409;28;20024;-59
2021/01/11 00:09:23;;;;;;;8.38;3.85;;;19.90;41.90;;;;;;6265501;28;20036;-53
2021/01/11 00:12:24;;;;;;;7.32;3.50;;;19.90;41.90;;;;;;6265233;28;20574;-61
2021/01/11 00:15:25;;;;;;;7.68;3.70;;;19.90;42.00;;;;;;6266712;28;20021;-57
2021/01/11 00:18:25;;;;;;;7.65;3.72;;;19.90;42.10;;;;;;6267650;28;20029;-57
2021/01/11 00:21:27;;;;;;;5.28;3.00;;;19.90;42.20;;;;;;6276632;28;20027;-56
2021/01/11 00:24:27;;;;;;;6.75;3.53;;;19.90;41.90;;;;;;6277932;28;20021;-57
2021/01/11 00:27:28;;;;;;;5.75;3.53;;;19.90;42.10;;;;;;6269578;28;20029;-59
2021/01/11 00:30:28;;;;;;;8.05;3.97;;;19.90;41.90;;;;;;6269629;28;20036;-60
2021/01/11 00:33:29;;;;;;;7.15;3.25;;;19.90;42.00;;;;;;6277146;28;20505;-58
2021/01/11 00:36:29;;;;;;;7.07;3.65;;;19.90;42.10;;;;;;6278033;28;20219;-57
2021/01/11 00:39:30;;;;;;;8.25;4.07;;;19.90;42.20;;;;;;6277519;28;20041;-57
2021/01/11 00:42:33;;;;;;;6.70;3.40;;;19.90;41.90;;;;;;6277478;28;20383;-57
2021/01/11 00:45:34;;;;;;;6.88;3.35;;;19.90;42.00;;;;;;6277499;28;20028;-54
2021/01/11 00:48:34;;;;;;;6.07;3.22;;;19.90;42.00;;;;;;6277262;28;20385;-59
2021/01/11 00:51:37;;;;;;;5.90;3.55;;;19.90;42.00;;;;;;6277135;28;20115;-53
2021/01/11 00:54:37;;;;;;;6.38;3.17;;;19.90;42.00;;;;;;6276954;28;20025;-57
2021/01/11 00:57:38;;;;;;;5.53;3.05;;;19.90;42.00;;;;;;6277279;28;20501;-58
2021/01/11 01:00:38;;;;;;;5.55;3.15;;;19.90;42.20;;;;;;6276632;28;20060;-55
2021/01/11 01:03:40;;;;;;;5.78;3.08;;;19.90;42.10;;;;;;6277171;28;20115;-59
2021/01/11 01:06:40;;;;;;;5.97;2.80;;;19.90;42.00;;;;;;6276741;28;20035;-60
2021/01/11 01:09:41;;;;;;;6.35;3.22;;;19.90;42.20;;;;;;6268842;28;20033;-56
2021/01/11 01:12:41;;;;;;;5.70;3.03;;;19.90;42.20;;;;;;6271284;28;20079;-57
2021/01/11 01:15:42;;;;;;;4.88;2.80;;;19.80;42.30;;;;;;6276596;28;20111;-57
2021/01/11 01:18:42;;;;;;;5.60;2.90;;;19.90;42.00;;;;;;6276786;28;20389;-56
2021/01/11 01:21:43;;;;;;;4.97;2.85;;;19.80;42.20;;;;;;6276014;28;20028;-53
2021/01/11 01:24:43;;;;;;;5.72;3.20;;;19.90;42.80;;;;;;6268441;28;20023;-58
2021/01/11 01:27:44;;;;;;;4.18;2.65;;;19.80;42.20;;;;;;6269070;28;20037;-55
2021/01/11 01:30:45;;;;;;;5.07;3.10;;;19.80;42.10;;;;;;6276094;28;20366;-59
2021/01/11 01:33:45;;;;;;;4.35;2.63;;;19.80;42.10;;;;;;6275303;28;20119;-57
2021/01/11 01:36:46;;;;;;;5.35;3.00;;;19.80;42.30;;;;;;6276193;28;20028;-55
2021/01/11 01:39:46;;;;;;;4.38;2.40;;;19.70;42.10;;;;;;6268331;28;20033;-54
2021/01/11 01:42:47;;;;;;;4.53;2.83;;;19.70;42.20;;;;;;6267691;28;20029;-59
2021/01/11 01:45:48;;;;;;;5.85;2.75;;;19.70;42.20;;;;;;6276048;28;20070;-56
2021/01/11 01:48:49;;;;;;;4.55;2.45;;;19.70;42.20;;;;;;6275780;28;20115;-59
2021/01/11 01:51:49;;;;;;;4.75;2.58;;;19.70;42.20;;;;;;6275719;28;20138;-58
2021/01/11 01:54:50;;;;;;;3.55;2.15;;;19.70;42.20;;;;;;6275815;28;20088;-56
2021/01/11 01:57:54;;;;;;;4.75;2.47;;;19.70;42.30;;;;;;6275716;28;20078;-54
2021/01/11 02:00:55;;;;;;;3.38;2.03;;;19.70;42.30;;;;;;6275101;28;20481;-55
2021/01/11 02:03:55;;;;;;;4.28;2.40;;;19.70;42.20;;;;;;6291956;28;20091;-57
2021/01/11 02:07:08;;;;;;;3.88;2.40;;;19.70;42.30;;;;;;6275615;28;20473;-54
2021/01/11 02:10:25;;;;;;;3.90;2.60;;;19.60;42.20;;;;;;6275423;28;20051;-54
2021/01/11 02:13:32;;;;;;;4.40;2.40;;;19.60;42.30;;;;;;6274958;28;20077;-57
2021/01/11 02:16:36;;;;;;;3.90;2.47;;;19.60;42.20;;;;;;6250846;28;20021;-58
2021/01/11 02:20:03;;;;;;;3.20;1.95;;;19.70;42.40;;;;;;6250777;28;20028;-57
2021/01/11 02:23:41;;;;;;;4.15;2.47;;;19.70;42.40;;;;;;6266729;28;20147;-58
2021/01/11 02:26:54;;;;;;;4.30;2.35;;;19.60;42.40;;;;;;6270007;28;20483;-59
2021/01/11 02:30:14;;;;;;;3.63;2.17;;;19.60;42.30;;;;;;6274041;28;20070;-60
2021/01/11 02:33:16;;;;;;;3.53;2.38;;;19.60;42.30;;;;;;6284923;28;20022;-57
2021/01/11 02:36:19;;;;;;;3.22;2.25;;;19.60;42.50;;;;;;6270047;28;20115;-59
2021/01/11 02:39:20;;;;;;;3.33;2.10;;;19.60;42.40;;;;;;6275180;28;20079;-55
2021/01/11 02:42:20;;;;;;;3.65;1.92;;;19.60;42.30;;;;;;6274621;28;20477;-59
2021/01/11 02:45:21;;;;;;;3.80;2.10;;;19.60;42.40;;;;;;6270235;28;20535;-58
2021/01/11 02:48:28;;;;;;;4.03;2.33;;;19.60;42.50;;;;;;6274966;28;20464;-57
2021/01/11 02:51:50;;;;;;;2.67;1.83;;;19.60;42.40;;;;;;6274398;28;20432;-58
2021/01/11 02:55:05;;;;;;;3.97;2.30;;;19.60;42.40;;;;;;6273596;28;20029;-56
2021/01/11 02:58:12;;;;;;;2.92;1.98;;;19.60;42.50;;;;;;6291432;28;20117;-56
2021/01/11 03:01:17;;;;;;;3.13;1.80;;;19.60;42.40;;;;;;6274039;28;20025;-60
2021/01/11 03:04:25;;;;;;;3.75;1.90;;;19.60;42.50;;;;;;6285729;28;20139;-60
2021/01/11 03:07:26;;;;;;;2.60;1.80;;;19.50;42.50;;;;;;6266596;28;20119;-58
2021/01/11 03:10:26;;;;;;;3.20;1.73;;;19.50;42.50;;;;;;6273971;28;20070;-58
2021/01/11 03:13:27;;;;;;;2.75;1.80;;;19.60;42.60;;;;;;6269874;28;20020;-56
2021/01/11 03:16:27;;;;;;;3.17;2.10;;;19.50;42.50;;;;;;6266240;28;20086;-55
2021/01/11 03:19:28;;;;;;;3.60;1.92;;;19.60;42.60;;;;;;6266406;28;20049;-59
2021/01/11 03:22:28;;;;;;;3.65;2.03;;;19.50;42.40;;;;;;6265067;28;20504;-58
2021/01/11 03:25:29;;;;;;;3.55;1.90;;;19.50;42.60;;;;;;6263495;28;20021;-59
2021/01/11 03:28:29;;;;;;;3.00;1.80;;;19.60;42.60;;;;;;6273919;28;20024;-59
2021/01/11 03:31:30;;;;;;;3.65;1.80;;;19.50;42.60;;;;;;6273928;28;20028;-55
2021/01/11 03:34:31;;;;;;;2.28;1.40;;;19.50;42.60;;;;;;6273542;28;20024;-59
2021/01/11 03:37:32;;;;;;;2.50;1.60;;;19.60;42.60;;;;;;6269581;28;20029;-56
2021/01/11 03:40:32;;;;;;;2.38;1.58;;;19.50;42.60;;;;;;6274044;28;20024;-58
2021/01/11 03:43:33;;;;;;;2.78;1.58;;;19.50;42.60;;;;;;6267371;28;20040;-58
2021/01/11 03:46:34;;;;;;;3.15;1.73;;;19.50;42.60;;;;;;6259946;28;20099;-56
2021/01/11 03:49:35;;;;;;;2.13;1.48;;;19.50;42.50;;;;;;6273729;28;20040;-58
2021/01/11 03:52:36;;;;;;;2.10;1.55;;;19.50;43.20;;;;;;6272386;28;20020;-58
2021/01/11 03:55:40;;;;;;;2.40;1.70;;;19.50;42.70;;;;;;6267055;28;20029;-60
2021/01/11 03:58:40;;;;;;;2.78;1.48;;;19.50;42.60;;;;;;6295494;28;20078;-58
2021/01/11 04:01:41;;;;;;;2.10;1.45;;;19.50;42.70;;;;;;6296182;28;20031;-57
2021/01/11 04:04:41;;;;;;;2.78;1.40;;;19.50;42.60;;;;;;6264792;28;20013;-57
2021/01/11 04:07:42;;;;;;;2.45;1.50;;;19.50;42.70;;;;;;6287215;28;20024;-55
2021/01/11 04:10:42;;;;;;;2.08;1.60;;;19.50;42.70;;;;;;6277750;28;20112;-57
2021/01/11 04:13:43;;;;;;;1.98;1.38;;;19.50;42.70;;;;;;6273441;28;20017;-58
2021/01/11 04:16:44;;;;;;;2.70;1.67;;;19.40;42.60;;;;;;6277888;28;20028;-56
2021/01/11 04:19:44;;;;;;;2.45;1.48;;;19.40;42.60;;;;;;6278615;28;20071;-53
2021/01/11 04:22:45;;;;;;;1.90;1.33;;;19.40;42.60;;;;;;6274794;28;20040;-58
2021/01/11 04:25:45;;;;;;;3.17;1.55;;;19.40;42.70;;;;;;6276123;28;20115;-54
2021/01/11 04:28:46;;;;;;;1.83;1.30;;;19.40;42.70;;;;;;6277771;28;20036;-59
2021/01/11 04:31:48;;;;;;;1.88;1.30;;;19.40;42.80;;;;;;6277749;28;20025;-56
2021/01/11 04:34:48;;;;;;;2.33;1.45;;;19.40;42.60;;;;;;6287732;28;20337;-59
2021/01/11 04:37:49;;;;;;;2.10;1.42;;;19.40;42.80;;;;;;6277295;28;20094;-57
2021/01/11 04:40:49;;;;;;;1.20;1.10;;;19.40;42.70;;;;;;6277702;28;20449;-56
2021/01/11 04:43:54;;;;;;;2.63;1.60;;;19.40;42.80;;;;;;6278650;28;20033;-55
2021/01/11 04:46:55;;;;;;;2.20;1.27;;;19.40;42.90;;;;;;6277463;28;20029;-56
2021/01/11 04:49:56;;;;;;;2.60;1.48;;;19.40;42.70;;;;;;6277509;28;20032;-59
2021/01/11 04:52:57;;;;;;;2.35;1.38;;;19.40;42.70;;;;;;6269106;28;20120;-55
2021/01/11 04:55:58;;;;;;;2.63;1.05;;;19.40;42.70;;;;;;6264159;28;20028;-53
2021/01/11 04:59:00;;;;;;;2.00;1.40;;;19.40;42.70;;;;;;6276988;28;20142;-53
2021/01/11 05:02:01;;;;;;;1.85;1.23;;;19.40;42.80;;;;;;6276682;28;20025;-56
2021/01/11 05:05:03;;;;;;;1.92;1.00;;;19.40;42.80;;;;;;6275619;28;20104;-54
2021/01/11 05:08:04;;;;;;;1.75;1.30;;;19.40;42.70;;;;;;6275493;28;20214;-58
2021/01/11 05:11:05;;;;;;;1.58;1.23;;;19.40;42.60;;;;;;6276335;28;20392;-58
2021/01/11 05:14:06;;;;;;;2.10;1.25;;;19.50;42.60;;;;;;6275499;28;20024;-56
2021/01/11 05:17:06;;;;;;;1.35;1.02;;;19.50;42.60;;;;;;6276203;28;20078;-54
2021/01/11 05:20:07;;;;;;;1.60;1.13;;;19.50;42.60;;;;;;6276368;28;20500;-56
2021/01/11 05:23:13;;;;;;;1.27;1.17;;;19.50;42.70;;;;;;6270183;28;20021;-56
2021/01/11 05:26:14;;;;;;;1.50;1.20;;;19.50;42.70;;;;;;6271048;28;20032;-57
2021/01/11 05:29:18;;;;;;;2.00;1.20;;;19.60;42.90;;;;;;6292198;28;20028;-57
2021/01/11 05:32:25;;;;;;;1.83;1.30;;;19.60;42.90;;;;;;6276353;28;20024;-55
2021/01/11 05:35:27;;;;;;;1.25;1.05;;;19.60;42.90;;;;;;6259554;28;20024;-58
2021/01/11 05:38:36;;;;;;;1.95;1.30;;;19.60;42.90;;;;;;6276245;28;20028;-60
2021/01/11 05:41:41;;;;;;;2.03;1.23;;;19.60;43.00;;;;;;6276039;28;20028;-60
2021/01/11 05:44:41;;;;;;;;;;;19.60;42.90;;;;;;6275490;28;20029;-57
2021/01/11 05:47:57;;;;;;;2.53;1.20;;;19.60;43.00;;;;;;6276272;28;20379;-55
2021/01/11 05:51:01;;;;;;;;;;;19.60;43.00;;;;;;6276099;28;20044;-57
2021/01/11 05:54:03;;;;;;;1.48;1.00;;;19.60;43.00;;;;;;6277158;28;19908;-54
2021/01/11 05:57:03;;;;;;;1.30;0.90;;;19.60;43.00;;;;;;6275452;28;20028;-58
2021/01/11 06:00:05;;;;;;;1.75;1.02;;;19.60;42.90;;;;;;6275344;28;20480;-59
2021/01/11 06:03:07;;;;;;;1.00;0.82;;;19.70;43.00;;;;;;6269566;28;20325;-58
2021/01/11 06:06:08;;;;;;;1.92;1.15;;;19.70;43.00;;;;;;6251360;28;20021;-57
2021/01/11 06:09:09;;;;;;;1.10;1.00;;;19.70;43.00;;;;;;6252606;28;20506;-57
2021/01/11 06:12:11;;;;;;;1.20;1.02;;;19.70;43.00;;;;;;6284105;28;20025;-59
2021/01/11 06:15:14;;;;;;;1.23;0.98;;;19.70;43.10;;;;;;6261820;28;20034;-58
2021/01/11 06:18:14;;;;;;;1.67;1.10;;;19.70;43.10;;;;;;6267074;28;20021;-56
2021/01/11 06:21:17;;;;;;;1.23;1.05;;;19.70;43.10;;;;;;6266152;28;20539;-57
2021/01/11 06:24:18;;;;;;;1.45;1.10;;;19.70;43.10;;;;;;6274474;28;20054;-60
2021/01/11 06:27:19;;;;;;;1.55;1.20;;;19.70;43.10;;;;;;6291851;28;20039;-54
2021/01/11 06:30:42;;;;;;;1.55;1.10;;;19.70;43.10;;;;;;6274600;28;20020;-55
2021/01/11 06:33:43;;;;;;;1.13;0.90;;;19.70;43.20;;;;;;6286750;28;20020;-58
2021/01/11 06:36:43;;;;;;;2.03;1.10;;;19.70;43.20;;;;;;6275005;28;20052;-57
2021/01/11 06:39:46;;;;;;;1.35;1.00;;;19.70;43.20;;;;;;6274375;28;20031;-54
2021/01/11 06:42:58;;;;;;;1.42;1.02;;;19.70;43.20;;;;;;6271552;28;20514;-55
2021/01/11 06:45:58;;;;;;;1.42;1.00;;;19.70;43.20;;;;;;6267262;28;20085;-60
2021/01/11 06:49:01;;;;;;;1.23;1.08;;;19.70;43.30;;;;;;6274501;28;20025;-59
2021/01/11 06:52:04;;;;;;;1.00;0.90;;;19.70;43.20;;;;;;6274737;28;20032;-53
2021/01/11 06:55:12;;;;;;;1.75;1.00;;;19.70;43.30;;;;;;6266058;28;20123;-60
2021/01/11 06:58:22;;;;;;;11.98;2.10;;;19.80;43.30;;;;;;6265031;28;20024;-59
2021/01/11 07:01:28;;;;;;;9.65;3.40;;;19.70;41.70;;;;;;6274137;28;20033;-57
2021/01/11 07:04:36;;;;;;;3.28;2.60;;;19.60;40.60;;;;;;6274338;28;20106;-56
2021/01/11 07:07:39;;;;;;;6.72;2.22;;;19.80;41.40;;;;;;6272148;28;20055;-56
2021/01/11 07:10:41;;;;;;;6.10;2.10;;;19.90;41.20;;;;;;6273457;28;20012;-55
2021/01/11 07:13:45;;;;;;;9.27;2.13;;;20.00;41.40;;;;;;6272298;28;20020;-56
2021/01/11 07:16:51;;;;;;;3.10;1.70;;;20.20;41.30;;;;;;6274272;28;20050;-57
2021/01/11 07:19:52;;;;;;;2.38;1.42;;;20.30;41.30;;;;;;6274151;28;20024;-52
2021/01/11 07:22:52;;;;;;;7.68;1.73;;;20.40;41.90;;;;;;6270475;28;20032;-57
2021/01/11 07:25:55;;;;;;;3.30;1.70;;;20.60;41.50;;;;;;6269518;28;20021;-54
2021/01/11 07:29:00;;;;;;;2.10;1.30;;;20.70;41.50;;;;;;6273590;28;20174;-55
2021/01/11 07:32:01;;;;;;;4.38;1.33;;;20.70;41.70;;;;;;6278870;28;20074;-56
2021/01/11 07:35:02;;;;;;;5.40;1.65;;;20.80;41.70;;;;;;6275599;28;20029;-57
2021/01/11 07:38:03;;;;;;;3.92;1.20;;;20.80;41.80;;;;;;6296112;28;20035;-58
2021/01/11 07:41:05;;;;;;;5.00;1.02;;;20.90;41.90;;;;;;6296906;28;20443;-60
2021/01/11 07:44:20;;;;;;;7.57;1.35;;;20.90;41.70;;;;;;6274240;28;20064;-56
2021/01/11 07:47:20;;;;;;;6.13;1.23;;;21.00;42.30;;;;;;6278872;28;20029;-55
2021/01/11 07:50:27;;;;;;;1.90;1.00;;;21.00;42.30;;;;;;6272816;28;20027;-57
2021/01/11 07:53:35;;;;;;;1.45;1.10;;;21.00;42.30;;;;;;6290837;28;20042;-56
2021/01/11 07:56:38;;;;;;;2.90;1.20;;;21.10;42.20;;;;;;6279648;28;20524;-60
2021/01/11 07:59:40;;;;;;;5.40;1.15;;;21.10;42.20;;;;;;6289191;28;20089;-55
2021/01/11 08:02:45;;;;;;;2.80;1.10;;;21.10;42.20;;;;;;6278191;28;20390;-57
2021/01/11 08:05:46;;;;;;;2.38;1.00;;;21.10;42.30;;;;;;6268273;28;20574;-59
2021/01/11 08:08:49;;;;;;;8.32;1.17;;;21.20;42.20;;;;;;6278442;28;20029;-59
2021/01/11 08:12:04;;;;;;;2.90;1.33;;;21.10;42.20;;;;;;6279541;28;20440;-56
2021/01/11 08:15:07;;;;;;;3.93;1.00;;;21.10;42.40;;;;;;6270272;28;20052;-55
2021/01/11 08:18:09;;;;;;;2.20;1.08;;;21.00;42.40;;;;;;6271427;28;20029;-55
2021/01/11 08:21:11;;;;;;;1.58;1.02;;;21.00;42.40;;;;;;6259488;28;20029;-58
2021/01/11 08:24:12;;;;;;;1.98;1.10;;;21.00;42.50;;;;;;6278777;28;20012;-58
2021/01/11 08:27:18;;;;;;;1.00;0.82;;;21.00;42.50;;;;;;6278443;28;20067;-56
2021/01/11 08:30:24;;;;;;;1.13;0.82;;;21.00;42.60;;;;;;6279022;28;20020;-59
2021/01/11 08:33:24;;;;;;;0.80;0.80;;;21.00;42.50;;;;;;6270435;28;20078;-59
2021/01/11 08:36:25;;;;;;;2.05;1.08;;;21.00;42.60;;;;;;6278013;28;20036;-59
2021/01/11 08:39:26;;;;;;;1.58;0.93;;;20.90;42.40;;;;;;6278906;28;20493;-58
2021/01/11 08:42:28;;;;;;;2.15;1.10;;;20.90;42.40;;;;;;6269594;28;20112;-59
2021/01/11 08:45:36;;;;;;;2.22;1.20;;;20.90;42.50;;;;;;6279134;28;20103;-59
2021/01/11 08:48:36;;;;;;;1.27;1.00;;;21.00;42.60;;;;;;6273293;28;20025;-58
2021/01/11 08:51:37;;;;;;;1.48;0.85;;;21.00;42.60;;;;;;6278691;28;20412;-59
2021/01/11 08:54:38;;;;;;;1.33;1.08;;;20.90;42.40;;;;;;6284171;28;20016;-59
2021/01/11 08:57:39;;;;;;;2.53;1.35;;;21.00;42.50;;;;;;6278654;28;20529;-59
2021/01/11 09:00:39;;;;;;;1.10;0.88;;;21.00;42.50;;;;;;6278375;28;20077;-56
2021/01/11 09:03:50;;;;;;;1.40;1.00;;;21.00;42.40;;;;;;6277885;28;20029;-58
2021/01/11 09:06:50;;;;;;;2.08;1.10;;;21.00;42.50;;;;;;6271772;28;20108;-59
2021/01/11 09:09:51;;;;;;;1.23;0.80;;;21.00;42.50;;;;;;6270259;28;20364;-58
2021/01/11 09:12:52;;;;;;;2.10;0.95;;;21.00;42.40;;;;;;6274814;28;20049;-59
2021/01/11 09:15:52;;;;;;;1.50;0.93;;;21.00;42.40;;;;;;6278401;28;20025;-57
2021/01/11 09:19:11;;;;;;;1.35;0.90;;;21.00;42.50;;;;;;6278133;28;20451;-56
2021/01/11 09:22:17;;;;;;;0.90;0.80;;;21.00;43.20;;;;;;6277636;28;20025;-56
2021/01/11 09:25:18;;;;;;;2.22;0.90;;;21.00;42.40;;;;;;6277468;28;20016;-54
2021/01/11 09:28:18;;;;;;;1.00;0.73;;;21.00;42.40;;;;;;6277701;28;20486;-57
2021/01/11 09:31:19;;;;;;;1.25;0.77;;;21.00;42.40;;;;;;6277947;28;20025;-58
2021/01/11 09:34:20;;;;;;;1.42;1.08;;;21.00;42.40;;;;;;6282410;28;20027;-59
2021/01/11 09:37:20;;;;;;;0.85;0.80;;;21.00;42.40;;;;;;6277865;28;20535;-55
2021/01/11 09:40:23;;;;;;;0.93;0.73;;;21.00;42.40;;;;;;6277085;28;20054;-55
2021/01/11 09:43:24;;;;;;;1.05;0.70;;;21.00;42.40;;;;;;6273099;28;20716;-56
2021/01/11 09:46:24;;;;;;;1.45;0.90;;;21.00;42.40;;;;;;6276980;28;20029;-59
2021/01/11 09:49:25;;;;;;;1.85;1.15;;;21.00;43.00;;;;;;6276766;28;20051;-55
2021/01/11 09:52:26;;;;;;;1.15;0.85;;;21.00;42.40;;;;;;6276077;28;20496;-58
2021/01/11 09:55:26;;;;;;;1.02;0.88;;;21.10;42.40;;;;;;6276611;28;20029;-58
2021/01/11 09:58:27;;;;;;;1.70;0.88;;;21.10;42.40;;;;;;6277247;28;20469;-56
2021/01/11 10:01:45;;;;;;;0.90;0.70;;;21.10;42.40;;;;;;6276948;28;20067;-58
2021/01/11 10:04:45;;;;;;;1.40;1.00;;;21.00;42.40;;;;;;6281472;28;20396;-58
2021/01/11 10:07:46;;;;;;;3.08;0.85;;;21.00;42.30;;;;;;6276852;28;20025;-58
2021/01/11 10:10:47;;;;;;;1.23;1.00;;;21.00;42.10;;;;;;6268576;28;20021;-58
2021/01/11 10:13:47;;;;;;;1.75;0.93;;;21.00;42.10;;;;;;6270583;28;20028;-58
2021/01/11 10:16:51;;;;;;;1.17;1.00;;;21.10;42.10;;;;;;6252496;28;20037;-56
2021/01/11 10:19:51;;;;;;;1.80;1.05;;;21.10;42.00;;;;;;6268710;28;20472;-57
2021/01/11 10:22:52;;;;;;;0.98;0.80;;;21.10;42.00;;;;;;6273312;28;20025;-58
2021/01/11 10:25:52;;;;;;;1.48;0.88;;;21.10;42.10;;;;;;6275340;28;20021;-59
2021/01/11 10:28:53;;;;;;;1.20;0.88;;;21.10;42.00;;;;;;6293090;28;20036;-57
2021/01/11 10:31:54;;;;;;;1.30;0.98;;;21.10;42.00;;;;;;6294729;28;20063;-56
2021/01/11 10:34:54;;;;;;;1.20;0.80;;;21.10;42.00;;;;;;6275460;28;20531;-52
2021/01/11 10:37:55;;;;;;;1.52;0.90;;;21.10;42.00;;;;;;6276406;28;20029;-57
2021/01/11 10:40:56;;;;;;;0.70;0.68;;;21.10;42.00;;;;;;6275813;28;20325;-59
2021/01/11 10:43:56;;;;;;;3.15;0.95;;;21.10;42.00;;;;;;6274779;28;20225;-56
2021/01/11 10:47:01;;;;;;;1.20;0.95;;;21.10;42.00;;;;;;6275806;28;20060;-58
2021/01/11 10:50:02;;;;;;;1.35;0.75;;;21.10;42.00;;;;;;6276105;28;20120;-57
2021/01/11 10:53:03;;;;;;;1.63;0.73;;;21.10;42.00;;;;;;6270925;28;20029;-57
2021/01/11 10:56:04;;;;;;;1.20;0.90;;;21.10;42.70;;;;;;6271169;28;20024;-55
2021/01/11 10:59:04;;;;;;;1.35;0.88;;;21.20;42.10;;;;;;6294205;28;20028;-59
2021/01/11 11:02:07;;;;;;;1.77;0.80;;;21.10;42.00;;;;;;6275361;28;20504;-58
2021/01/11 11:05:08;;;;;;;1.00;0.80;;;21.10;42.00;;;;;;6271768;28;20025;-58
2021/01/11 11:08:08;;;;;;;2.08;1.00;;;21.10;42.10;;;;;;6257361;28;20017;-57
2021/01/11 11:11:11;;;;;;;1.25;0.80;;;21.10;42.10;;;;;;6275522;28;20047;-57
2021/01/11 11:14:12;;;;;;;1.10;0.80;;;21.10;42.10;;;;;;6279557;28;20392;-59
2021/01/11 11:17:14;;;;;;;1.10;0.93;;;21.10;42.10;;;;;;6275137;28;20025;-58
2021/01/11 11:20:15;;;;;;;0.75;0.70;;;21.10;42.20;;;;;;6274829;28;20506;-59
2021/01/11 11:23:16;;;;;;;0.90;0.75;;;21.10;42.10;;;;;;6270560;28;20026;-57
2021/01/11 11:26:20;;;;;;;1.58;1.10;;;21.20;42.30;;;;;;6267024;28;20052;-58
2021/01/11 11:29:21;;;;;;;1.10;0.93;;;21.10;42.20;;;;;;6268215;28;20033;-56
2021/01/11 11:32:21;;;;;;;1.00;0.80;;;21.10;42.20;;;;;;6275253;28;20794;-58
2021/01/11 11:35:22;;;;;;;1.00;0.80;;;21.10;42.30;;;;;;6274059;28;20032;-55
2021/01/11 11:38:23;;;;;;;1.50;0.95;;;21.10;42.30;;;;;;6275468;28;20032;-58
2021/01/11 11:41:24;;;;;;;5.70;1.02;;;21.10;42.30;;;;;;6265476;28;20037;-59
2021/01/11 11:44:25;;;;;;;9.63;1.02;;;21.10;42.30;;;;;;6286105;28;20387;-59
2021/01/11 11:47:26;;;;;;;4.88;1.63;;;21.10;42.10;;;;;;6270518;28;20147;-57
2021/01/11 11:50:27;;;;;;;3.08;1.40;;;21.30;42.10;;;;;;6273222;28;20474;-57
2021/01/11 11:53:27;;;;;;;3.42;0.90;;;21.30;42.10;;;;;;6268782;28;20021;-59
2021/01/11 11:56:28;;;;;;;8.32;2.20;;;21.40;42.30;;;;;;6256587;28;20490;-58
2021/01/11 11:59:28;;;;;;;13.52;4.88;;;21.40;42.10;;;;;;6273152;28;20079;-55
2021/01/11 12:02:29;;;;;;;102.90;7.72;;;21.40;41.90;;;;;;6273146;28;20025;-58
2021/01/11 12:05:30;;;;;;;45.65;8.57;;;21.50;42.00;;;;;;6283140;28;20040;-61
2021/01/11 12:08:30;;;;;;;28.35;7.38;;;21.50;41.90;;;;;;6272707;28;20094;-59
2021/01/11 12:11:45;;;;;;;35.15;8.35;;;21.60;41.90;;;;;;6264521;28;20260;-59
2021/01/11 12:14:46;;;;;;;36.95;7.85;;;21.60;41.90;;;;;;6275945;28;20516;-59
2021/01/11 12:17:47;;;;;;;32.38;6.95;;;21.70;41.90;;;;;;6304482;28;20353;-59
2021/01/11 12:20:47;;;;;;;27.48;6.53;;;21.70;41.80;;;;;;6275410;28;20044;-58
2021/01/11 12:23:48;;;;;;;29.90;6.55;;;21.70;41.80;;;;;;6277334;28;20393;-58
2021/01/11 12:26:50;;;;;;;14.43;5.57;;;21.70;41.90;;;;;;6276393;28;20017;-56
2021/01/11 12:29:50;;;;;;;27.75;6.25;;;21.70;41.70;;;;;;6276270;28;20108;-55
2021/01/11 12:32:51;;;;;;;18.42;5.63;;;21.70;41.70;;;;;;6288152;28;20025;-55
2021/01/11 12:35:53;;;;;;;19.45;5.40;;;21.70;41.70;;;;;;6275724;28;20394;-54
2021/01/11 12:38:55;;;;;;;16.67;5.07;;;21.70;41.70;;;;;;6275698;28;20039;-57
2021/01/11 12:41:55;;;;;;;14.52;5.13;;;21.80;41.70;;;;;;6284519;28;20024;-56
2021/01/11 12:44:57;;;;;;;15.88;3.92;;;21.80;41.70;;;;;;6277227;28;20366;-53
2021/01/11 12:47:58;;;;;;;18.88;4.60;;;21.80;41.90;;;;;;6278953;28;20469;-57
2021/01/11 12:50:58;;;;;;;15.93;5.10;;;21.80;41.80;;;;;;6284647;28;20021;-56
2021/01/11 12:53:59;;;;;;;12.32;4.50;;;21.80;41.70;;;;;;6276917;28;20029;-59
2021/01/11 12:56:59;;;;;;;11.85;4.25;;;21.80;41.70;;;;;;6267703;28;20059;-55
2021/01/11 13:00:01;;;;;;;12.98;4.05;;;21.80;41.90;;;;;;6268717;28;20604;-58
2021/01/11 13:03:02;;;;;;;10.07;3.90;;;21.80;41.90;;;;;;6275163;28;20548;-56
2021/01/11 13:06:02;;;;;;;7.68;3.55;;;21.80;42.60;;;;;;6278685;28;20021;-58
2021/01/11 13:09:05;;;;;;;8.40;3.53;;;21.80;41.90;;;;;;6275398;28;20017;-53
2021/01/11 13:12:06;;;;;;;6.05;2.70;;;21.80;41.90;;;;;;6275766;28;20073;-53
2021/01/11 13:15:07;;;;;;;6.63;3.20;;;21.80;41.90;;;;;;6275682;28;20427;-53
2021/01/11 13:18:08;;;;;;;6.80;3.00;;;21.70;41.80;;;;;;6279239;28;20024;-59
2021/01/11 13:21:08;;;;;;;8.05;3.63;;;21.70;41.80;;;;;;6292189;28;20074;-55
2021/01/11 13:24:09;;;;;;;4.53;2.65;;;21.70;41.80;;;;;;6293257;28;20550;-57
2021/01/11 13:27:10;;;;;;;10.25;2.90;;;21.70;41.80;;;;;;6274297;28;20102;-52
2021/01/11 13:30:11;;;;;;;12.43;2.60;;;21.70;41.90;;;;;;6275365;28;20024;-54
2021/01/11 13:33:11;;;;;;;8.80;2.60;;;21.70;42.00;;;;;;6275357;28;20150;-56
2021/01/11 13:36:18;;;;;;;4.82;2.33;;;21.70;42.00;;;;;;6273715;28;20521;-57
2021/01/11 13:39:21;;;;;;;6.38;2.40;;;21.70;42.00;;;;;;6275214;28;20115;-53
2021/01/11 13:42:22;;;;;;;4.53;2.58;;;21.70;42.10;;;;;;6281945;28;20032;-52
2021/01/11 13:45:22;;;;;;;6.78;2.50;;;21.70;42.00;;;;;;6292381;28;20016;-53
2021/01/11 13:48:23;;;;;;;7.82;2.75;;;21.70;41.90;;;;;;6274982;28;20025;-58
2021/01/11 13:51:23;;;;;;;15.48;2.55;;;21.70;41.90;;;;;;6267209;28;20426;-62
2021/01/11 13:54:25;;;;;;;10.75;2.72;;;21.80;42.20;;;;;;6275672;28;20027;-51
2021/01/11 13:57:26;;;;;;;10.48;2.67;;;21.80;42.50;;;;;;6274890;28;20073;-51
2021/01/11 14:00:27;;;;;;;3.10;1.85;;;21.80;42.10;;;;;;6277600;28;20020;-52
2021/01/11 14:03:27;;;;;;;10.07;2.75;;;21.80;42.00;;;;;;6268181;28;20033;-53
2021/01/11 14:06:29;;;;;;;5.53;2.05;;;21.80;42.00;;;;;;6267330;28;20016;-54
2021/01/11 14:09:30;;;;;;;4.82;2.33;;;21.80;42.00;;;;;;6287165;28;20112;-55
2021/01/11 14:12:30;;;;;;;4.93;2.13;;;21.80;42.10;;;;;;6285014;28;20029;-57
2021/01/11 14:15:31;;;;;;;3.40;1.80;;;21.80;42.10;;;;;;6267298;28;20036;-55
2021/01/11 14:18:32;;;;;;;4.70;2.08;;;21.80;41.90;;;;;;6279977;28;20028;-51
2021/01/11 14:21:32;;;;;;;5.03;2.08;;;21.80;42.00;;;;;;6272360;28;20117;-56
2021/01/11 14:24:33;;;;;;;5.30;2.20;;;21.80;41.70;;;;;;6282671;28;20027;-53
2021/01/11 14:27:34;;;;;;;4.28;2.00;;;21.80;41.90;;;;;;6266713;28;20029;-56
2021/01/11 14:30:35;;;;;;;4.85;2.22;;;21.80;41.90;;;;;;6275718;28;20027;-54
2021/01/11 14:33:37;;;;;;;3.97;1.70;;;21.80;42.10;;;;;;6274046;28;20033;-56
2021/01/11 14:36:38;;;;;;;4.38;1.95;;;21.80;41.80;;;;;;6274457;28;20031;-56
2021/01/11 14:39:38;;;;;;;2.60;1.42;;;21.80;41.80;;;;;;6273056;28;20024;-52
2021/01/11 14:42:42;;;;;;;4.13;1.90;;;21.80;42.00;;;;;;6273705;28;20020;-57
2021/01/11 14:45:42;;;;;;;4.20;1.88;;;21.80;41.90;;;;;;6274152;28;20127;-55
2021/01/11 14:48:43;;;;;;;3.58;2.10;;;21.80;41.80;;;;;;6286516;28;20024;-53
2021/01/11 14:51:44;;;;;;;6.00;1.92;;;21.80;41.80;;;;;;6284793;28;20033;-57
2021/01/11 14:54:44;;;;;;;11.05;1.98;;;21.80;41.80;;;;;;6267702;28;20474;-55
2021/01/11 14:57:45;;;;;;;3.15;1.42;;;21.90;42.10;;;;;;6291846;28;20060;-55
2021/01/11 15:00:45;;;;;;;5.32;1.83;;;21.90;42.10;;;;;;6269473;28;20328;-56
2021/01/11 15:03:46;;;;;;;7.40;1.88;;;21.90;42.10;;;;;;6273832;28;20548;-56
2021/01/11 15:06:55;;;;;;;5.05;1.80;;;21.90;41.80;;;;;;6273730;28;20711;-59
2021/01/11 15:09:56;;;;;;;4.57;1.90;;;22.00;41.70;;;;;;6288300;28;20036;-58
2021/01/11 15:12:56;;;;;;;4.13;2.05;;;22.00;41.70;;;;;;6280018;28;20020;-56
2021/01/11 15:15:57;;;;;;;7.07;1.60;;;22.00;41.80;;;;;;6266629;28;20029;-57
2021/01/11 15:18:58;;;;;;;4.28;2.13;;;22.00;41.80;;;;;;6273701;28;20036;-55
2021/01/11 15:21:58;;;;;;;3.42;1.40;;;22.00;41.70;;;;;;6284456;28;20033;-57
2021/01/11 15:24:59;;;;;;;3.50;1.40;;;21.90;41.70;;;;;;6294080;28;20036;-57
2021/01/11 15:28:01;;;;;;;5.78;1.50;;;22.00;41.80;;;;;;6274575;28;20043;-58
2021/01/11 15:31:02;;;;;;;2.08;1.38;;;22.00;41.70;;;;;;6274187;28;20116;-59
2021/01/11 15:34:03;;;;;;;3.17;1.83;;;22.00;41.80;;;;;;6280939;28;20115;-55
2021/01/11 15:37:04;;;;;;;2.80;1.70;;;22.00;41.80;;;;;;6271450;28;20027;-52
2021/01/11 15:40:06;;;;;;;3.47;1.55;;;22.00;41.90;;;;;;6267044;28;20048;-54
2021/01/11 15:43:07;;;;;;;2.03;1.35;;;22.00;41.80;;;;;;6282541;28;20024;-56
2021/01/11 15:46:07;;;;;;;2.20;1.13;;;22.00;41.80;;;;;;6278480;28;20024;-57